• Join FlightAware (Why Join?)
  • Login
  • US Flag 
07:07PM EDT


 

Airport Tracker/Info


-or-


 

Live Flight TrackerFlight Track Log ✈ SAS4587 ✈ 25-Aug-2013 ✈ ENTC / TOS - ENBO / BOO

Flight Track Log - Related Links

Times and Time Zones

All times are in EDT time to prevent confusion due to time zone crossing. See the SAS4587 flight status page for this flight to view local times or setup timezone preferences in your user account.

Time Position Orientation Groundspeed Altitude Reporting Facility
EDT Latitude Longitude Course Direction KTS MPH feet Rate Location/Type
01:31PM 69.6800 19.6110 143° Southeast  Level FlightAware
01:33PM 69.6800 18.9110 270° West  Level FlightAware
01:33PM 69.6800 19.6240 90° East  Level FlightAware
01:33PM 69.6800 18.9110 270° West  Level FlightAware
01:34PM 69.6800 19.6240 90° East  Level FlightAware
01:35PM 69.6760 19.6110 258° West 72 83  Level FlightAware
01:38PM 69.6910 18.9240 274° West 141 162 200 120 Climbing FlightAware
01:38PM 69.6950 18.9260 10° North 137 158 400 2,160 Climbing FlightAware
01:39PM 69.7040 18.9030 318° Northwest 149 171 1,100 2,040 Climbing FlightAware
01:39PM 69.7040 18.8930 270° West 150 173 1,300 1,200 Climbing FlightAware
01:39PM 69.7010 18.8760 243° Southwest 162 186 1,400 840 Climbing FlightAware
01:39PM 69.6980 18.8680 223° Southwest 179 206 1,500 2,640 Climbing FlightAware
01:39PM 69.6840 18.8330 221° Southwest 210 242 2,500 3,120 Climbing FlightAware
01:40PM 69.6680 18.7960 219° Southwest 238 274 3,600 2,880 Climbing FlightAware
01:40PM 69.6560 18.7580 228° Southwest 273 314 4,200 2,640 Climbing FlightAware
01:40PM 69.6480 18.7300 231° Southwest 286 329 4,700 3,180 Climbing FlightAware
01:40PM 69.6260 18.6820 217° Southwest 311 358 5,800 3,660 Climbing FlightAware
01:41PM 69.6090 18.6420 219° Southwest 316 364 6,900 4,200 Climbing FlightAware
01:41PM 69.5810 18.5740 220° Southwest 330 380 8,600 3,960 Climbing FlightAware
01:41PM 69.5570 18.5180 219° Southwest 343 395 9,900 4,440 Climbing FlightAware
01:42PM 69.5130 18.4180 219° Southwest 341 392 12,700 4,860 Climbing FlightAware
01:43PM 69.4700 18.3210 218° Southwest 342 394 15,500 4,080 Climbing FlightAware
01:43PM 69.4200 18.2080 218° Southwest 357 411 17,800 3,300 Climbing FlightAware
01:44PM 69.3800 18.1190 218° Southwest 371 427 19,400 3,120 Climbing FlightAware
01:44PM 69.3280 18.0320 211° Southwest 384 442 21,200 3,000 Climbing FlightAware
01:45PM 69.2640 17.9340 208° Southwest 396 456 23,200 2,820 Climbing FlightAware
01:45PM 69.2160 17.8590 209° Southwest 404 465 24,600 2,640 Climbing FlightAware
01:46PM 69.1500 17.7590 208° Southwest 413 475 26,300 2,880 Climbing FlightAware
01:47PM 69.0940 17.6730 209° Southwest 409 471 28,200 3,060 Climbing FlightAware
01:47PM 69.0290 17.5740 209° Southwest 405 466 30,100 2,700 Climbing FlightAware
01:48PM 68.9640 17.4760 208° Southwest 401 461 31,700 2,220 Climbing FlightAware
01:48PM 68.9150 17.4040 208° Southwest 404 465 32,700 2,040 Climbing FlightAware
01:49PM 68.8560 17.3140 209° Southwest 405 466 34,000 1,140 Climbing FlightAware
01:50PM 68.8050 17.2400 208° Southwest 405 466 34,000  Level FlightAware
01:50PM 68.7380 17.1400 208° Southwest 408 470 34,000  Level FlightAware
01:51PM 68.6790 17.0540 208° Southwest 416 479 34,000  Level FlightAware
01:51PM 68.6150 16.9610 208° Southwest 417 480 34,000  Level FlightAware
01:52PM 68.5600 16.8810 208° Southwest 419 482 34,000  Level FlightAware
01:53PM 68.5040 16.8000 208° Southwest 419 482 34,000  Level FlightAware
01:53PM 68.4360 16.7040 207° Southwest 416 479 34,000 -1,020 Level FlightAware
01:54PM 68.3840 16.6300 208° Southwest 416 479 32,900 -2,640 Descending FlightAware
01:54PM 68.3170 16.5360 207° Southwest 405 466 30,900 -3,060 Descending FlightAware
01:55PM 68.2480 16.4300 210° Southwest 406 467 28,800 -3,060 Descending FlightAware
01:56PM 68.1940 16.3310 214° Southwest 394 453 27,100 -3,000 Descending FlightAware
01:56PM 68.1420 16.2350 215° Southwest 390 449 25,400 -3,000 Descending FlightAware
01:57PM 68.0970 16.1540 214° Southwest 392 451 23,900 -2,940 Descending FlightAware
01:57PM 68.0370 16.0440 214° Southwest 384 442 21,900 -3,060 Descending FlightAware
01:58PM 67.9830 15.9480 214° Southwest 370 426 20,000 -3,120 Descending FlightAware
01:59PM 67.9330 15.8590 214° Southwest 371 427 18,300 -2,880 Descending FlightAware
01:59PM 67.8840 15.7710 214° Southwest 365 420 16,600 -3,000 Descending FlightAware
02:00PM 67.8280 15.6720 214° Southwest 351 404 14,600 -1,980 Descending FlightAware
02:01PM 67.7850 15.5830 218° Southwest 350 403 14,000 -480 Descending FlightAware
02:01PM 67.7460 15.4980 220° Southwest 350 403 14,000  Level FlightAware
02:02PM 67.7070 15.4160 219° Southwest 350 403 14,000  Level FlightAware
02:02PM 67.6930 15.3860 223° Southwest 350 403 14,000  Level FlightAware
02:02PM 67.6930 15.3860 194° South 350 403 14,000  Level FlightAware
02:04PM 67.5502 15.0333 223° Southwest  Level Estimated
02:05PM 67.4602 14.8170 223° Southwest  Level Estimated
02:06PM 67.3699 14.6022 223° Southwest  Level Estimated
02:07PM 67.2793 14.3891 222° Southwest  Level Estimated
02:08PM 67.2692 14.3653 222° Southwest  Level Estimated
02:09PM 67.2692 14.3653 194° South  Level Estimated
02:11PM 67.2692 14.3653 223° Southwest  Level Estimated